Arctic Bay — 9HTD8 — position and weather

sailwx.info

Track history (hours):
 
Tides and Currents Weather Stations Pressure Air Temp Water Temp Dewpoint Dewpoint Depression Visibility Wind Speed Wind Dir Waves Ship Positions

Arctic Bay

Last reported at 2017-Apr-21 19:45 UTC. Time now 2017-Apr-24 21:00 UTC.
Position N 09°11' W 079°52'.

Length 182 m; draft 10 m.

Type: Ship. MMSI: 256396000.

Date/timePositionNaut miles runAvg speedWind from/ knotsBaromVisibWave heightAir tempDewpointWater temp
2017-Apr-21 19:45N 09°11' W 079°52'2 8.4
2017-Apr-21 19:28N 09°12' W 079°54'2 0.6
2017-Apr-21 15:55N 09°13' W 079°56'1 1.5
2017-Apr-21 15:30N 09°14' W 079°56'2 3.1
2017-Apr-21 15:00N 09°15' W 079°55'1 2.1
2017-Apr-21 14:30N 09°16' W 079°55'1 0.5
2017-Apr-21 13:27N 09°17' W 079°55'0 1.1
2017-Apr-21 13:00N 09°17' W 079°55'3 5.6
2017-Apr-21 12:30N 09°20' W 079°55'2 4.9
2017-Apr-21 12:00N 09°23' W 079°56'0 0.4
2017-Apr-21 11:26N 09°23' W 079°56'0 0.1
2017-Apr-21 10:56N 09°23' W 079°56'0 0.0
2017-Apr-21 10:29N 09°23' W 079°56'0 0.0
2017-Apr-21 09:59N 09°23' W 079°56'0 0.0
2017-Apr-21 09:29N 09°23' W 079°56'0 0.0
2017-Apr-21 08:59N 09°23' W 079°56'0 0.1
2017-Apr-21 08:29N 09°23' W 079°56'0 0.0
2017-Apr-21 07:50N 09°23' W 079°56'0 0.0
2017-Apr-21 07:29N 09°23' W 079°56'0 0.0
2017-Apr-21 06:56N 09°23' W 079°56'0 0.0
2017-Apr-21 06:29N 09°23' W 079°56'0 0.0
2017-Apr-21 05:59N 09°23' W 079°56'0 0.0
2017-Apr-21 05:29N 09°23' W 079°56'0 0.0
2017-Apr-21 04:59N 09°23' W 079°56'0 0.0
2017-Apr-21 04:29N 09°23' W 079°56'0 0.0
2017-Apr-21 03:59N 09°23' W 079°56'0 0.0
2017-Apr-21 03:23N 09°23' W 079°56'0 0.0
2017-Apr-21 02:53N 09°23' W 079°56'0 0.0
2017-Apr-21 02:23N 09°23' W 079°56'0 0.0
2017-Apr-21 01:59N 09°23' W 079°56'0 0.0
2017-Apr-21 01:26N 09°23' W 079°56'0 0.0
2017-Apr-21 00:59N 09°23' W 079°56'0 0.0
2017-Apr-21 00:29N 09°23' W 079°56'0 0.0
2017-Apr-20 23:59N 09°23' W 079°56'0 0.0
2017-Apr-20 23:29N 09°23' W 079°56'0 0.0
2017-Apr-20 22:59N 09°23' W 079°56'0 0.0
2017-Apr-20 22:26N 09°23' W 079°56'0 0.1
2017-Apr-20 21:59N 09°23' W 079°56'0 0.1
2017-Apr-20 21:29N 09°23' W 079°56'0 0.1
2017-Apr-20 20:59N 09°23' W 079°56'0 0.1
2017-Apr-20 20:29N 09°23' W 079°56'0 0.1
2017-Apr-20 19:59N 09°23' W 079°56'0 0.0
2017-Apr-20 19:29N 09°23' W 079°56'0 0.0
2017-Apr-20 18:59N 09°23' W 079°56'0 0.0
2017-Apr-20 18:29N 09°23' W 079°56'0 0.0
2017-Apr-20 17:56N 09°23' W 079°56'0 0.0
2017-Apr-20 17:29N 09°23' W 079°56'0 0.0
2017-Apr-20 16:59N 09°23' W 079°56'0 0.1
2017-Apr-20 16:29N 09°23' W 079°56'0 0.0
2017-Apr-20 15:59N 09°23' W 079°56'0 0.1
2017-Apr-20 15:29N 09°23' W 079°56'0 0.1
2017-Apr-20 14:59N 09°23' W 079°56'1 2.8
2017-Apr-20 14:30N 09°24' W 079°55'3 2.7
2017-Apr-20 13:30N 09°25' W 079°58'0 0.0
2017-Apr-20 12:57N 09°25' W 079°58'0 0.0
2017-Apr-20 12:30N 09°25' W 079°58'0 0.0
2017-Apr-20 12:00N 09°25' W 079°57'0 0.0
2017-Apr-20 11:30N 09°25' W 079°58'0 0.0
2017-Apr-20 11:00N 09°25' W 079°58'0 0.0
2017-Apr-20 10:27N 09°25' W 079°58'0 0.0
2017-Apr-20 09:54N 09°25' W 079°58'0 0.0
2017-Apr-20 09:30N 09°25' W 079°58'0 0.0
2017-Apr-20 08:57N 09°25' W 079°57'0 0.0
2017-Apr-20 08:30N 09°25' W 079°57'0 0.0
2017-Apr-20 08:00N 09°25' W 079°57'0 0.0
2017-Apr-20 07:30N 09°25' W 079°58'1 1.0
2017-Apr-20 07:00N 09°25' W 079°58'2 4.4
2017-Apr-20 06:30N 09°27' W 079°57'3 6.6
2017-Apr-20 06:00N 09°29' W 079°54'  
2017-Apr-15 11:43N 29°54' W 093°55'2 8.3
2017-Apr-15 11:30N 29°55' W 093°53'  
Track history (hours):
 
Tides and Currents Weather Stations Pressure Air Temp Water Temp Dewpoint Dewpoint Depression Visibility Wind Speed Wind Dir Waves Ship Positions

Arctic Bay

Last reported at 2017-Apr-21 19:45 UTC. Time now 2017-Apr-24 21:00 UTC.
Position N 09°11' W 079°52'.

Length 182 m; draft 10 m.

Type: Ship. MMSI: 256396000.

Date/timePositionNaut miles runAvg speedWind from/ knotsBaromVisibWave heightAir tempDewpointWater temp
2017-Apr-21 19:45N 09°11' W 079°52'2 8.4
2017-Apr-21 19:28N 09°12' W 079°54'2 0.6
2017-Apr-21 15:55N 09°13' W 079°56'1 1.5
2017-Apr-21 15:30N 09°14' W 079°56'2 3.1
2017-Apr-21 15:00N 09°15' W 079°55'1 2.1
2017-Apr-21 14:30N 09°16' W 079°55'1 0.5
2017-Apr-21 13:27N 09°17' W 079°55'0 1.1
2017-Apr-21 13:00N 09°17' W 079°55'3 5.6
2017-Apr-21 12:30N 09°20' W 079°55'2 4.9
2017-Apr-21 12:00N 09°23' W 079°56'0 0.4
2017-Apr-21 11:26N 09°23' W 079°56'0 0.1
2017-Apr-21 10:56N 09°23' W 079°56'0 0.0
2017-Apr-21 10:29N 09°23' W 079°56'0 0.0
2017-Apr-21 09:59N 09°23' W 079°56'0 0.0
2017-Apr-21 09:29N 09°23' W 079°56'0 0.0
2017-Apr-21 08:59N 09°23' W 079°56'0 0.1
2017-Apr-21 08:29N 09°23' W 079°56'0 0.0
2017-Apr-21 07:50N 09°23' W 079°56'0 0.0
2017-Apr-21 07:29N 09°23' W 079°56'0 0.0
2017-Apr-21 06:56N 09°23' W 079°56'0 0.0
2017-Apr-21 06:29N 09°23' W 079°56'0 0.0
2017-Apr-21 05:59N 09°23' W 079°56'0 0.0
2017-Apr-21 05:29N 09°23' W 079°56'0 0.0
2017-Apr-21 04:59N 09°23' W 079°56'0 0.0
2017-Apr-21 04:29N 09°23' W 079°56'0 0.0
2017-Apr-21 03:59N 09°23' W 079°56'0 0.0
2017-Apr-21 03:23N 09°23' W 079°56'0 0.0
2017-Apr-21 02:53N 09°23' W 079°56'0 0.0
2017-Apr-21 02:23N 09°23' W 079°56'0 0.0
2017-Apr-21 01:59N 09°23' W 079°56'0 0.0
2017-Apr-21 01:26N 09°23' W 079°56'0 0.0
2017-Apr-21 00:59N 09°23' W 079°56'0 0.0
2017-Apr-21 00:29N 09°23' W 079°56'0 0.0
2017-Apr-20 23:59N 09°23' W 079°56'0 0.0
2017-Apr-20 23:29N 09°23' W 079°56'0 0.0
2017-Apr-20 22:59N 09°23' W 079°56'0 0.0
2017-Apr-20 22:26N 09°23' W 079°56'0 0.1
2017-Apr-20 21:59N 09°23' W 079°56'0 0.1
2017-Apr-20 21:29N 09°23' W 079°56'0 0.1
2017-Apr-20 20:59N 09°23' W 079°56'0 0.1
2017-Apr-20 20:29N 09°23' W 079°56'0 0.1
2017-Apr-20 19:59N 09°23' W 079°56'0 0.0
2017-Apr-20 19:29N 09°23' W 079°56'0 0.0
2017-Apr-20 18:59N 09°23' W 079°56'0 0.0
2017-Apr-20 18:29N 09°23' W 079°56'0 0.0
2017-Apr-20 17:56N 09°23' W 079°56'0 0.0
2017-Apr-20 17:29N 09°23' W 079°56'0 0.0
2017-Apr-20 16:59N 09°23' W 079°56'0 0.1
2017-Apr-20 16:29N 09°23' W 079°56'0 0.0
2017-Apr-20 15:59N 09°23' W 079°56'0 0.1
2017-Apr-20 15:29N 09°23' W 079°56'0 0.1
2017-Apr-20 14:59N 09°23' W 079°56'1 2.8
2017-Apr-20 14:30N 09°24' W 079°55'3 2.7
2017-Apr-20 13:30N 09°25' W 079°58'0 0.0
2017-Apr-20 12:57N 09°25' W 079°58'0 0.0
2017-Apr-20 12:30N 09°25' W 079°58'0 0.0
2017-Apr-20 12:00N 09°25' W 079°57'0 0.0
2017-Apr-20 11:30N 09°25' W 079°58'0 0.0
2017-Apr-20 11:00N 09°25' W 079°58'0 0.0
2017-Apr-20 10:27N 09°25' W 079°58'0 0.0
2017-Apr-20 09:54N 09°25' W 079°58'0 0.0
2017-Apr-20 09:30N 09°25' W 079°58'0 0.0
2017-Apr-20 08:57N 09°25' W 079°57'0 0.0
2017-Apr-20 08:30N 09°25' W 079°57'0 0.0
2017-Apr-20 08:00N 09°25' W 079°57'0 0.0
2017-Apr-20 07:30N 09°25' W 079°58'1 1.0
2017-Apr-20 07:00N 09°25' W 079°58'2 4.4
2017-Apr-20 06:30N 09°27' W 079°57'3 6.6
2017-Apr-20 06:00N 09°29' W 079°54'  
2017-Apr-15 11:43N 29°54' W 093°55'2 8.3
2017-Apr-15 11:30N 29°55' W 093°53'  

Dump ship's entire track history